In Rescue
 
Open Full Screen Window  High Contrast Mode
Wind Gusting 00 knots
11
November 29, 2022 8:55 AM CST
Weather Information
Wind Direction
  210 °
Wind Speed
  11 kt (13 mph)
Wind Gust
  00 kt (0 mph)
Altimeter
29.62 in
Visibility
10 SM
Temperature
-09° C
16° F
Dewpoint
-12° C
10° F
Humidity
79%
1hr Rain Fall
00.00 in.
24hr Rain Fall
00.00 in.
Sky Condition
Clear
VFR

METAR KFGN 291455Z AUTO 21011KT 10SM CLR M09/M12 A2962 RMK AO2 PWINO

FAA Disclaimer: The data displayed is for advisory purposes only and is not to be used for flight planning or operations.